Terminal Aerodrome Forecast
Issued by NWS Quad Cities IA IL

Home | Current Version | Previous Version | Text Only | Print | Product List | Glossary On
Versions: 1 2 3 4 5 6 7 8 9 10 11 12 13 14 15 16 17 18 19 20 21 22 23 24
000
FTUS43 KDVN 202300
TAFMLI
TAF
KMLI 202327Z 2100/2124 20005KT P6SM BKN150
     FM210700 18004KT 6SM BR VCTS BKN050CB
     FM211300 20007KT P6SM BKN080
     FM211600 21012KT P6SM BKN150=

USA.gov is the U.S. government's official web portal to all federal, state and local government web resources and services.